TimeMST,TemperatureF,Dew PointF,Humidity,Sea Level PressureIn,VisibilityMPH,Wind Direction,Wind SpeedMPH,Gust SpeedMPH,PrecipitationIn,Events,Conditions,WindDirDegrees,DateUTC
12:54 AM,24.1,9.0,53,30.31,10.0,South,8.1,-,N/A,,Clear,170,2013-01-22 07:54:00
1:54 AM,23.0,9.0,55,30.31,10.0,SSE,6.9,-,N/A,,Clear,160,2013-01-22 08:54:00
2:54 AM,19.9,8.1,60,30.32,10.0,Calm,Calm,-,N/A,,Clear,0,2013-01-22 09:54:00
3:54 AM,19.9,8.1,60,30.32,10.0,SSE,3.5,-,N/A,,Clear,160,2013-01-22 10:54:00
4:54 AM,19.0,8.1,62,30.34,10.0,Calm,Calm,-,N/A,,Clear,0,2013-01-22 11:54:00
5:54 AM,12.9,6.1,74,30.43,10.0,NW,3.5,-,N/A,,Clear,320,2013-01-22 12:54:00
6:54 AM,15.1,6.1,68,30.44,10.0,South,4.6,-,N/A,,Clear,180,2013-01-22 13:54:00
7:54 AM,17.1,6.1,62,30.45,10.0,SSE,3.5,-,N/A,,Clear,150,2013-01-22 14:54:00
8:54 AM,26.1,9.0,49,30.42,10.0,Calm,Calm,-,N/A,,Clear,0,2013-01-22 15:54:00
9:54 AM,32.0,10.0,40,30.41,10.0,Calm,Calm,-,N/A,,Clear,0,2013-01-22 16:54:00
10:54 AM,39.9,12.9,33,30.38,10.0,Calm,Calm,-,N/A,,Clear,0,2013-01-22 17:54:00
11:54 AM,46.0,14.0,28,30.33,10.0,Calm,Calm,-,N/A,,Clear,0,2013-01-22 18:54:00
12:54 PM,50.0,14.0,24,30.29,10.0,Calm,Calm,-,N/A,,Clear,0,2013-01-22 19:54:00
1:54 PM,53.1,12.9,20,30.25,10.0,NW,4.6,-,N/A,,Clear,320,2013-01-22 20:54:00
2:54 PM,55.0,12.0,18,30.24,10.0,Variable,3.5,-,N/A,,Clear,0,2013-01-22 21:54:00
3:54 PM,55.9,10.9,17,30.24,10.0,NW,3.5,-,N/A,,Clear,320,2013-01-22 22:54:00
4:54 PM,55.9,9.0,15,30.24,10.0,NNW,3.5,-,N/A,,Clear,330,2013-01-22 23:54:00
5:54 PM,37.9,9.0,30,30.34,10.0,NW,4.6,-,N/A,,Clear,310,2013-01-23 00:54:00
6:54 PM,37.0,10.0,33,30.35,10.0,West,5.8,-,N/A,,Clear,270,2013-01-23 01:54:00
7:54 PM,34.0,10.9,38,30.37,10.0,South,3.5,-,N/A,,Clear,180,2013-01-23 02:54:00
8:54 PM,30.9,10.9,43,30.36,10.0,South,4.6,-,N/A,,Clear,170,2013-01-23 03:54:00
9:54 PM,32.0,10.0,40,30.34,10.0,South,8.1,-,N/A,,Clear,170,2013-01-23 04:54:00
10:54 PM,30.0,10.0,43,30.33,10.0,South,5.8,-,N/A,,Clear,170,2013-01-23 05:54:00
11:54 PM,19.9,8.1,60,30.35,10.0,Calm,Calm,-,N/A,,Clear,0,2013-01-23 06:54:00